createdAt,value
2023-03-27T00:01:08.076Z,58.59
2023-03-27T00:04:11.178Z,59.29
2023-03-27T00:07:20.680Z,59.55
2023-03-27T00:10:24.414Z,59.48
2023-03-27T00:13:28.235Z,61.40
2023-03-27T00:16:30.848Z,62.23
2023-03-27T00:19:34.019Z,61.55
2023-03-27T00:22:36.537Z,61.10
2023-03-27T00:25:40.868Z,61.85
2023-03-27T00:28:43.494Z,62.60
2023-03-27T00:31:47.351Z,61.54
2023-03-27T00:34:49.953Z,62.57
2023-03-27T00:37:53.918Z,61.69
2023-03-27T00:40:57.652Z,62.92
2023-03-27T00:44:00.642Z,63.13
2023-03-27T00:47:04.631Z,62.73
2023-03-27T00:50:12.554Z,63.90
2023-03-27T00:53:24.763Z,63.30
2023-03-27T00:56:27.959Z,63.06
2023-03-27T00:59:34.870Z,63.47
2023-03-27T01:02:37.728Z,62.64
2023-03-27T01:05:41.250Z,63.88
2023-03-27T01:08:45.637Z,62.86
2023-03-27T01:12:11.653Z,63.86
2023-03-27T01:15:43.124Z,64.70
2023-03-27T01:18:53.793Z,64.77
2023-03-27T01:22:07.385Z,64.75
2023-03-27T01:25:40.686Z,66.90
2023-03-27T01:29:25.587Z,68.02
2023-03-27T01:32:37.676Z,67.47
2023-03-27T01:35:52.338Z,68.92
2023-03-27T01:39:13.806Z,71.53
2023-03-27T01:42:20.466Z,73.89
2023-03-27T01:45:30.711Z,74.15
2023-03-27T01:48:46.106Z,72.98
2023-03-27T01:51:54.987Z,73.57
2023-03-27T01:55:05.142Z,75.88
2023-03-27T01:58:20.154Z,77.91
2023-03-27T02:01:34.015Z,78.40
2023-03-27T02:04:50.696Z,78.75
2023-03-27T02:08:00.046Z,78.70
2023-03-27T02:11:04.790Z,79.34
2023-03-27T02:14:15.959Z,79.33
2023-03-27T02:17:21.655Z,78.96
2023-03-27T02:20:24.794Z,79.67
2023-03-27T02:23:27.508Z,81.70
2023-03-27T02:26:30.706Z,81.99
2023-03-27T02:29:55.990Z,82.48
2023-03-27T02:33:09.119Z,83.65
2023-03-27T02:36:21.761Z,83.28
2023-03-27T02:39:38.253Z,83.21
2023-03-27T02:42:55.961Z,81.42
2023-03-27T02:46:40.439Z,83.01
2023-03-27T02:49:49.005Z,82.57
2023-03-27T02:52:56.153Z,82.91
2023-03-27T02:56:02.097Z,83.12
2023-03-27T02:59:10.395Z,83.03
2023-03-27T03:02:26.624Z,82.94
2023-03-27T03:05:33.164Z,82.77
2023-03-27T03:08:39.002Z,83.36
2023-03-27T03:11:47.616Z,83.19
2023-03-27T03:14:50.346Z,84.16
2023-03-27T03:17:53.244Z,85.05
2023-03-27T03:20:56.434Z,85.53
2023-03-27T03:24:00.135Z,85.70
2023-03-27T03:27:04.171Z,85.85
2023-03-27T03:30:10.643Z,85.97
2023-03-27T03:33:26.145Z,85.58
2023-03-27T03:36:30.894Z,85.79
2023-03-27T03:39:33.587Z,84.29
2023-03-27T03:42:36.358Z,85.24
2023-03-27T03:45:39.714Z,84.58
2023-03-27T03:48:42.421Z,83.65
2023-03-27T03:51:46.099Z,83.75
2023-03-27T03:54:48.707Z,84.69
2023-03-27T03:57:51.329Z,84.98
2023-03-27T04:00:59.536Z,84.92
2023-03-27T04:04:15.556Z,85.50
2023-03-27T04:07:45.794Z,86.38
2023-03-27T04:11:06.907Z,85.53
2023-03-27T04:14:36.468Z,85.96
2023-03-27T04:17:48.549Z,85.69
2023-03-27T04:20:51.379Z,85.19
2023-03-27T04:24:02.338Z,86.14
2023-03-27T04:27:18.102Z,86.50
2023-03-27T04:30:34.442Z,86.36
2023-03-27T04:33:52.204Z,86.89
2023-03-27T04:36:55.863Z,85.68
2023-03-27T04:40:00.520Z,86.05
2023-03-27T04:43:03.330Z,86.54
2023-03-27T04:46:09.304Z,87.08
2023-03-27T04:49:12.594Z,86.91
2023-03-27T04:52:25.548Z,87.17
2023-03-27T04:55:28.688Z,86.64
2023-03-27T04:58:31.423Z,86.61
2023-03-27T05:01:36.210Z,87.58
2023-03-27T05:04:41.861Z,88.23
2023-03-27T05:07:51.602Z,88.12
2023-03-27T05:10:58.716Z,88.60
2023-03-27T05:14:02.160Z,88.68
2023-03-27T05:17:07.126Z,87.71
2023-03-27T05:20:17.089Z,87.54
2023-03-27T05:23:21.347Z,87.80
2023-03-27T05:26:23.968Z,88.34
2023-03-27T05:29:46.383Z,87.30
2023-03-27T05:32:52.389Z,87.53
2023-03-27T05:36:03.278Z,87.79
2023-03-27T05:39:06.003Z,87.96
2023-03-27T05:42:15.851Z,88.17
2023-03-27T05:45:18.964Z,87.03
2023-03-27T05:48:21.520Z,88.27
2023-03-27T05:51:24.250Z,87.74
2023-03-27T05:54:26.859Z,88.12
2023-03-27T05:57:43.701Z,88.13
2023-03-27T06:00:46.757Z,87.46
2023-03-27T06:03:56.316Z,87.75
2023-03-27T06:07:16.019Z,87.30
2023-03-27T06:10:23.453Z,87.62
2023-03-27T06:13:26.090Z,88.25
2023-03-27T06:16:33.011Z,87.69
2023-03-27T06:20:12.524Z,87.94
2023-03-27T06:23:17.202Z,87.45
2023-03-27T06:26:20.031Z,87.70
2023-03-27T06:29:22.666Z,85.77
2023-03-27T06:32:27.690Z,86.56
2023-03-27T06:35:33.341Z,86.82
2023-03-27T06:38:48.754Z,87.99
2023-03-27T06:41:52.067Z,87.67
2023-03-27T06:45:00.437Z,87.57
2023-03-27T06:48:26.204Z,87.05
2023-03-27T06:51:32.013Z,86.16
2023-03-27T06:54:34.848Z,86.82
2023-03-27T06:57:42.842Z,86.41
2023-03-27T07:00:46.832Z,86.65
2023-03-27T07:03:55.348Z,87.55
2023-03-27T07:07:17.993Z,87.62
2023-03-27T07:10:22.813Z,87.75
2023-03-27T07:13:26.323Z,88.19
2023-03-27T07:16:29.656Z,88.20
2023-03-27T07:19:32.613Z,87.73
2023-03-27T07:22:43.257Z,87.83
2023-03-27T07:26:01.441Z,87.49
2023-03-27T07:29:27.256Z,88.22
2023-03-27T07:32:37.142Z,87.42
2023-03-27T07:35:42.937Z,87.85
2023-03-27T07:39:09.505Z,88.09
2023-03-27T07:42:12.117Z,88.33
2023-03-27T07:45:34.864Z,87.58
2023-03-27T07:48:38.599Z,87.97
2023-03-27T07:51:41.599Z,87.72
2023-03-27T07:54:44.535Z,87.59
2023-03-27T07:58:00.809Z,87.38
2023-03-27T08:01:06.351Z,85.99
2023-03-27T08:04:10.450Z,87.42
2023-03-27T08:07:15.715Z,86.12
2023-03-27T08:10:19.083Z,86.25
2023-03-27T08:13:35.053Z,86.75
2023-03-27T08:16:39.237Z,85.85
2023-03-27T08:19:45.562Z,86.10
2023-03-27T08:22:51.423Z,85.73
2023-03-27T08:26:14.659Z,85.57
2023-03-27T08:29:27.183Z,85.38
2023-03-27T08:32:29.806Z,85.52
2023-03-27T08:35:32.495Z,85.47
2023-03-27T08:38:39.334Z,85.77
2023-03-27T08:41:57.007Z,85.63
2023-03-27T08:45:52.232Z,85.22
2023-03-27T08:49:12.185Z,85.61
2023-03-27T08:52:25.324Z,86.05
2023-03-27T08:55:44.625Z,86.30
2023-03-27T08:58:54.190Z,85.83
2023-03-27T09:02:13.917Z,86.15
2023-03-27T09:05:26.271Z,86.83
2023-03-27T09:08:40.956Z,87.12
2023-03-27T09:11:51.323Z,87.44
2023-03-27T09:15:13.487Z,86.54
2023-03-27T09:18:20.409Z,87.17
2023-03-27T09:21:36.459Z,87.30
2023-03-27T09:24:49.058Z,88.15
2023-03-27T09:28:19.554Z,87.55
2023-03-27T09:31:35.112Z,87.18
2023-03-27T09:34:43.152Z,87.81
2023-03-27T09:37:47.453Z,86.74
2023-03-27T09:40:59.084Z,86.10
2023-03-27T09:44:03.698Z,86.59
2023-03-27T09:47:22.414Z,86.64
2023-03-27T09:50:32.759Z,85.38
2023-03-27T09:53:58.797Z,86.71
2023-03-27T09:57:11.248Z,84.60
2023-03-27T10:00:35.084Z,84.99
2023-03-27T10:04:01.341Z,86.34
2023-03-27T10:07:24.774Z,86.27
2023-03-27T10:10:56.383Z,85.77
2023-03-27T10:14:21.415Z,85.39
2023-03-27T10:17:27.719Z,86.00
2023-03-27T10:20:50.607Z,86.34
2023-03-27T10:24:01.421Z,86.30
2023-03-27T10:27:28.047Z,86.84
2023-03-27T10:31:24.461Z,86.52
2023-03-27T10:34:37.628Z,87.04
2023-03-27T10:38:01.366Z,86.08
2023-03-27T10:41:28.139Z,86.72
2023-03-27T10:44:37.745Z,86.92
2023-03-27T10:47:50.495Z,87.10
2023-03-27T10:50:57.812Z,87.44
2023-03-27T10:54:51.332Z,87.03
2023-03-27T10:57:57.928Z,87.16
2023-03-27T11:01:14.344Z,86.80
2023-03-27T11:04:51.520Z,86.61
2023-03-27T11:08:02.950Z,86.55
2023-03-27T11:11:17.084Z,86.03
2023-03-27T11:14:29.414Z,87.16
2023-03-27T11:17:49.321Z,87.00
2023-03-27T11:21:26.183Z,87.04
2023-03-27T11:24:47.356Z,87.53
2023-03-27T11:27:58.493Z,87.87
2023-03-27T11:31:32.651Z,87.37
2023-03-27T11:35:12.090Z,87.70
2023-03-27T11:38:36.311Z,87.65
2023-03-27T11:41:40.532Z,88.55
2023-03-27T11:44:43.310Z,88.63
2023-03-27T11:48:24.448Z,89.18
2023-03-27T11:51:48.295Z,88.65
2023-03-27T11:54:53.913Z,87.40
2023-03-27T11:58:26.738Z,87.80
2023-03-27T12:01:47.511Z,88.29
2023-03-27T12:05:33.874Z,88.28
2023-03-27T12:08:41.213Z,87.92
2023-03-27T12:11:57.440Z,87.91
2023-03-27T12:15:27.669Z,88.40
2023-03-27T12:18:36.381Z,88.72
2023-03-27T12:21:46.647Z,88.83
2023-03-27T12:25:06.245Z,88.65
2023-03-27T12:28:27.554Z,89.34
2023-03-27T12:32:24.952Z,88.81
2023-03-27T12:35:32.388Z,88.82
2023-03-27T12:38:42.142Z,87.89
2023-03-27T12:41:46.190Z,88.60
2023-03-27T12:45:14.838Z,88.95
2023-03-27T12:48:20.432Z,88.37
2023-03-27T12:51:51.429Z,87.59
2023-03-27T12:55:19.780Z,88.44
2023-03-27T12:58:48.047Z,88.58
2023-03-27T13:02:25.510Z,88.87
2023-03-27T13:05:42.404Z,88.72
2023-03-27T13:08:47.023Z,87.00
2023-03-27T13:12:18.448Z,87.58
2023-03-27T13:15:36.246Z,86.55
2023-03-27T13:18:53.299Z,87.25
2023-03-27T13:22:17.933Z,87.70
2023-03-27T13:25:30.234Z,88.51
2023-03-27T13:28:38.932Z,88.66
2023-03-27T13:31:49.977Z,88.93
2023-03-27T13:35:21.704Z,89.63
2023-03-27T13:38:52.764Z,89.77
2023-03-27T13:42:12.508Z,89.53
2023-03-27T13:45:47.251Z,90.00
2023-03-27T13:49:21.190Z,89.59
2023-03-27T13:52:57.224Z,89.68
2023-03-27T13:56:46.358Z,90.77
2023-03-27T14:00:06.414Z,90.82
2023-03-27T14:03:21.652Z,90.07
2023-03-27T14:06:31.880Z,90.21
2023-03-27T14:09:53.930Z,90.56
2023-03-27T14:13:25.456Z,90.37
2023-03-27T14:16:50.649Z,89.76
2023-03-27T14:20:24.179Z,89.83
2023-03-27T14:23:35.777Z,90.78
2023-03-27T14:26:57.846Z,89.93
2023-03-27T14:30:21.810Z,90.07
2023-03-27T14:33:51.119Z,89.32
2023-03-27T14:36:56.136Z,90.20
2023-03-27T14:40:43.849Z,89.29
2023-03-27T14:43:52.302Z,89.48
2023-03-27T14:47:04.590Z,89.13
2023-03-27T14:50:14.043Z,90.33
2023-03-27T14:53:26.284Z,89.00
2023-03-27T14:56:47.857Z,88.72
2023-03-27T14:59:56.834Z,89.28
2023-03-27T15:03:08.499Z,89.30
2023-03-27T15:06:36.469Z,89.35
2023-03-27T15:09:42.019Z,88.81
2023-03-27T15:13:20.306Z,89.27
2023-03-27T15:16:31.567Z,89.64
2023-03-27T15:19:48.507Z,89.77
2023-03-27T15:23:12.588Z,89.33
2023-03-27T15:26:26.151Z,90.08
2023-03-27T15:29:39.307Z,89.80
2023-03-27T15:32:50.913Z,89.09
2023-03-27T15:35:56.645Z,88.07
2023-03-27T15:39:01.005Z,87.57
2023-03-27T15:42:06.520Z,88.28
2023-03-27T15:45:10.934Z,84.12
2023-03-27T16:01:02.187Z,80.05
2023-03-27T16:04:12.545Z,78.67
2023-03-27T16:07:19.825Z,76.92
2023-03-27T16:10:31.552Z,77.51
2023-03-27T16:13:41.913Z,76.67
